Kinghorn, United Kingdom
Current Conditions -  °F | °C
As of 7:50 PM on Friday 31 Oct 2014 (Local Time) from EGPH Reporting Station
Broken Clouds Broken Clouds  
Wind Chill: 64°   Ceiling: 2700
Heat Index: 64°   Visibility: 6mi
Dew Point: 55°   Wind: 12mph
Humidity: 73%   Direction: 210°SSW
Pressure: 29.62"   Gusts: NA
Location:  56.07°N, 3.18°W
Report Text: EGPH 311950Z 21010KT 180V250 9999 BKN027 18/13 Q1003
Loading
Personal Weather Stations






























Interactive Weather Map
Tropical Storm Tracking
New forecast layout! Learn more

10-Day Weather Forecast

Advertisements
Track Severe Weather on mobile